sensor_id;sensor_type;location;lat;lon;timestamp;pressure;altitude;pressure_sealevel;temperature;humidity
6938;BME280;40040;42.706;23.372;2024-03-08T00:00:58;145823.72;;;6.67;100.00
6938;BME280;40040;42.706;23.372;2024-03-08T00:03:25;145850.72;;;6.78;100.00
6938;BME280;40040;42.706;23.372;2024-03-08T00:05:52;145839.69;;;6.74;100.00
6938;BME280;40040;42.706;23.372;2024-03-08T00:08:20;145859.34;;;6.82;100.00
6938;BME280;40040;42.706;23.372;2024-03-08T00:10:47;145849.53;;;6.78;100.00
6938;BME280;40040;42.706;23.372;2024-03-08T00:13:14;145853.22;;;6.79;100.00
6938;BME280;40040;42.706;23.372;2024-03-08T00:15:41;145860.59;;;6.82;100.00
6938;BME280;40040;42.706;23.372;2024-03-08T00:18:08;145859.34;;;6.82;100.00
6938;BME280;40040;42.706;23.372;2024-03-08T00:20:35;145872.88;;;6.88;100.00
6938;BME280;40040;42.706;23.372;2024-03-08T00:23:02;145872.88;;;6.88;100.00
6938;BME280;40040;42.706;23.372;2024-03-08T00:25:30;145858.16;;;6.81;100.00
6938;BME280;40040;42.706;23.372;2024-03-08T00:27:57;145863.03;;;6.83;100.00
6938;BME280;40040;42.706;23.372;2024-03-08T00:30:25;145831.06;;;6.70;100.00
6938;BME280;40040;42.706;23.372;2024-03-08T00:32:52;145779.41;;;6.49;100.00
6938;BME280;40040;42.706;23.372;2024-03-08T00:35:18;145860.59;;;6.82;100.00
6938;BME280;40040;42.706;23.372;2024-03-08T00:37:45;145848.28;;;6.77;100.00
6938;BME280;40040;42.706;23.372;2024-03-08T00:40:13;145838.44;;;6.73;100.00
6938;BME280;40040;42.706;23.372;2024-03-08T00:42:41;145794.19;;;6.55;100.00
6938;BME280;40040;42.706;23.372;2024-03-08T00:45:09;145790.47;;;6.54;100.00
6938;BME280;40040;42.706;23.372;2024-03-08T00:47:36;145753.59;;;6.39;100.00
6938;BME280;40040;42.706;23.372;2024-03-08T00:50:04;145729.00;;;6.29;100.00
6938;BME280;40040;42.706;23.372;2024-03-08T00:52:31;145706.88;;;6.20;100.00
6938;BME280;40040;42.706;23.372;2024-03-08T00:55:00;145666.31;;;6.03;100.00
6938;BME280;40040;42.706;23.372;2024-03-08T00:57:27;145655.25;;;5.99;100.00
6938;BME280;40040;42.706;23.372;2024-03-08T00:59:55;145649.13;;;5.96;100.00
6938;BME280;40040;42.706;23.372;2024-03-08T01:02:22;145652.81;;;5.98;100.00
6938;BME280;40040;42.706;23.372;2024-03-08T01:04:49;145612.16;;;5.81;100.00
6938;BME280;40040;42.706;23.372;2024-03-08T01:07:16;145639.28;;;5.92;100.00
6938;BME280;40040;42.706;23.372;2024-03-08T01:09:42;145638.03;;;5.92;100.00
6938;BME280;40040;42.706;23.372;2024-03-08T01:12:09;145624.50;;;5.86;100.00
6938;BME280;40040;42.706;23.372;2024-03-08T01:17:23;145520.03;;;5.43;100.00
6938;BME280;40040;42.706;23.372;2024-03-08T01:19:50;145565.47;;;5.62;100.00
6938;BME280;40040;42.706;23.372;2024-03-08T01:22:18;145614.66;;;5.82;100.00
6938;BME280;40040;42.706;23.372;2024-03-08T01:24:45;145622.06;;;5.85;100.00
6938;BME280;40040;42.706;23.372;2024-03-08T01:27:12;145622.06;;;5.85;100.00
6938;BME280;40040;42.706;23.372;2024-03-08T01:29:39;145627.00;;;5.87;100.00
6938;BME280;40040;42.706;23.372;2024-03-08T01:32:06;145630.66;;;5.89;100.00
6938;BME280;40040;42.706;23.372;2024-03-08T01:34:35;145629.44;;;5.88;100.00
6938;BME280;40040;42.706;23.372;2024-03-08T01:37:02;145627.00;;;5.87;100.00
6938;BME280;40040;42.706;23.372;2024-03-08T01:39:28;145612.16;;;5.81;100.00
6938;BME280;40040;42.706;23.372;2024-03-08T01:41:55;145651.56;;;5.97;100.00
6938;BME280;40040;42.706;23.372;2024-03-08T01:44:22;145594.97;;;5.74;100.00
6938;BME280;40040;42.706;23.372;2024-03-08T01:46:49;145674.88;;;6.07;100.00
6938;BME280;40040;42.706;23.372;2024-03-08T01:49:18;145663.84;;;6.02;100.00
6938;BME280;40040;42.706;23.372;2024-03-08T01:51:48;145681.06;;;6.09;100.00
6938;BME280;40040;42.706;23.372;2024-03-08T01:54:16;145654.00;;;5.98;100.00
6938;BME280;40040;42.706;23.372;2024-03-08T01:56:45;145629.44;;;5.88;100.00
6938;BME280;40040;42.706;23.372;2024-03-08T01:59:12;145693.34;;;6.14;100.00
6938;BME280;40040;42.706;23.372;2024-03-08T02:01:40;145700.69;;;6.17;100.00
6938;BME280;40040;42.706;23.372;2024-03-08T02:04:07;145722.84;;;6.26;100.00
6938;BME280;40040;42.706;23.372;2024-03-08T02:06:34;145735.13;;;6.31;100.00
6938;BME280;40040;42.706;23.372;2024-03-08T02:09:02;145730.25;;;6.29;100.00
6938;BME280;40040;42.706;23.372;2024-03-08T02:11:31;145678.63;;;6.08;100.00
6938;BME280;40040;42.706;23.372;2024-03-08T02:13:58;145700.69;;;6.17;100.00
6938;BME280;40040;42.706;23.372;2024-03-08T02:16:25;145693.34;;;6.14;100.00
6938;BME280;40040;42.706;23.372;2024-03-08T02:18:51;145687.22;;;6.12;100.00
6938;BME280;40040;42.706;23.372;2024-03-08T02:21:20;145656.47;;;5.99;100.00
6938;BME280;40040;42.706;23.372;2024-03-08T02:23:47;145654.00;;;5.98;100.00
6938;BME280;40040;42.706;23.372;2024-03-08T02:26:13;145651.56;;;5.97;100.00
6938;BME280;40040;42.706;23.372;2024-03-08T02:28:40;145703.19;;;6.18;100.00
6938;BME280;40040;42.706;23.372;2024-03-08T02:31:09;145688.41;;;6.12;100.00
6938;BME280;40040;42.706;23.372;2024-03-08T02:33:36;145695.81;;;6.15;100.00
6938;BME280;40040;42.706;23.372;2024-03-08T02:36:03;145694.59;;;6.15;100.00
6938;BME280;40040;42.706;23.372;2024-03-08T02:38:33;145701.94;;;6.18;100.00
6938;BME280;40040;42.706;23.372;2024-03-08T02:41:00;145700.69;;;6.17;100.00
6938;BME280;40040;42.706;23.372;2024-03-08T02:43:26;145623.31;;;5.86;100.00
6938;BME280;40040;42.706;23.372;2024-03-08T02:45:53;145668.78;;;6.04;100.00
6938;BME280;40040;42.706;23.372;2024-03-08T02:48:20;145651.56;;;5.97;100.00
6938;BME280;40040;42.706;23.372;2024-03-08T02:50:47;145644.19;;;5.94;100.00
6938;BME280;40040;42.706;23.372;2024-03-08T02:53:16;145602.31;;;5.77;100.00
6938;BME280;40040;42.706;23.372;2024-03-08T02:55:45;145614.66;;;5.82;100.00
6938;BME280;40040;42.706;23.372;2024-03-08T02:58:12;145597.44;;;5.75;100.00
6938;BME280;40040;42.706;23.372;2024-03-08T03:00:40;145489.31;;;5.31;100.00
6938;BME280;40040;42.706;23.372;2024-03-08T03:03:06;145539.66;;;5.51;100.00
6938;BME280;40040;42.706;23.372;2024-03-08T03:05:33;145527.38;;;5.46;100.00
6938;BME280;40040;42.706;23.372;2024-03-08T03:08:00;145473.34;;;5.24;100.00
6938;BME280;40040;42.706;23.372;2024-03-08T03:10:29;145510.19;;;5.39;100.00
6938;BME280;40040;42.706;23.372;2024-03-08T03:12:57;145494.22;;;5.33;100.00
6938;BME280;40040;42.706;23.372;2024-03-08T03:15:24;145491.75;;;5.32;100.00
6938;BME280;40040;42.706;23.372;2024-03-08T03:17:51;145489.31;;;5.31;100.00
6938;BME280;40040;42.706;23.372;2024-03-08T03:20:18;145486.88;;;5.30;100.00
6938;BME280;40040;42.706;23.372;2024-03-08T03:22:52;145494.22;;;5.33;100.00
6938;BME280;40040;42.706;23.372;2024-03-08T03:25:19;145508.94;;;5.39;100.00
6938;BME280;40040;42.706;23.372;2024-03-08T03:27:52;145516.34;;;5.42;100.00
6938;BME280;40040;42.706;23.372;2024-03-08T03:30:23;145526.16;;;5.46;100.00
6938;BME280;40040;42.706;23.372;2024-03-08T03:32:52;145524.94;;;5.45;100.00
6938;BME280;40040;42.706;23.372;2024-03-08T03:35:20;145496.66;;;5.34;100.00
6938;BME280;40040;42.706;23.372;2024-03-08T03:37:48;145528.63;;;5.47;100.00
6938;BME280;40040;42.706;23.372;2024-03-08T03:40:27;145531.06;;;5.48;100.00
6938;BME280;40040;42.706;23.372;2024-03-08T03:42:53;145511.44;;;5.40;100.00
6938;BME280;40040;42.706;23.372;2024-03-08T03:45:20;145491.75;;;5.32;100.00
6938;BME280;40040;42.706;23.372;2024-03-08T03:47:48;145469.66;;;5.23;100.00
6938;BME280;40040;42.706;23.372;2024-03-08T03:50:15;145518.78;;;5.43;100.00
6938;BME280;40040;42.706;23.372;2024-03-08T03:52:44;145521.28;;;5.44;100.00
6938;BME280;40040;42.706;23.372;2024-03-08T03:55:11;145528.63;;;5.47;100.00
6938;BME280;40040;42.706;23.372;2024-03-08T03:57:38;145512.66;;;5.40;100.00
6938;BME280;40040;42.706;23.372;2024-03-08T04:00:06;145499.16;;;5.35;100.00
6938;BME280;40040;42.706;23.372;2024-03-08T04:02:36;145480.72;;;5.27;100.00
6938;BME280;40040;42.706;23.372;2024-03-08T04:05:06;145529.81;;;5.47;100.00
6938;BME280;40040;42.706;23.372;2024-03-08T04:07:33;145538.44;;;5.51;100.00
6938;BME280;40040;42.706;23.372;2024-03-08T04:10:00;145558.13;;;5.59;100.00
6938;BME280;40040;42.706;23.372;2024-03-08T04:12:26;145565.47;;;5.62;100.00
6938;BME280;40040;42.706;23.372;2024-03-08T04:14:54;145580.25;;;5.68;100.00
6938;BME280;40040;42.706;23.372;2024-03-08T04:17:22;145579.00;;;5.67;100.00
6938;BME280;40040;42.706;23.372;2024-03-08T04:19:49;145523.72;;;5.45;100.00
6938;BME280;40040;42.706;23.372;2024-03-08T04:22:17;145572.84;;;5.65;100.00
6938;BME280;40040;42.706;23.372;2024-03-08T04:24:44;145558.13;;;5.59;100.00
6938;BME280;40040;42.706;23.372;2024-03-08T04:27:11;145585.16;;;5.70;100.00
6938;BME280;40040;42.706;23.372;2024-03-08T04:29:38;145602.31;;;5.77;100.00
6938;BME280;40040;42.706;23.372;2024-03-08T04:32:06;145604.81;;;5.78;100.00
6938;BME280;40040;42.706;23.372;2024-03-08T04:34:34;145606.03;;;5.79;100.00
6938;BME280;40040;42.706;23.372;2024-03-08T04:37:01;145577.75;;;5.67;100.00
6938;BME280;40040;42.706;23.372;2024-03-08T04:39:31;145517.53;;;5.42;100.00
6938;BME280;40040;42.706;23.372;2024-03-08T04:42:02;145610.94;;;5.81;100.00
6938;BME280;40040;42.706;23.372;2024-03-08T04:44:29;145617.13;;;5.83;100.00
6938;BME280;40040;42.706;23.372;2024-03-08T04:46:57;145617.13;;;5.83;100.00
6938;BME280;40040;42.706;23.372;2024-03-08T04:49:25;145592.53;;;5.73;100.00
6938;BME280;40040;42.706;23.372;2024-03-08T04:51:53;145604.81;;;5.78;100.00
6938;BME280;40040;42.706;23.372;2024-03-08T04:54:20;145612.16;;;5.81;100.00
6938;BME280;40040;42.706;23.372;2024-03-08T04:56:48;145629.44;;;5.88;100.00
6938;BME280;40040;42.706;23.372;2024-03-08T04:59:14;145639.28;;;5.92;100.00
6938;BME280;40040;42.706;23.372;2024-03-08T05:01:41;145613.41;;;5.82;100.00
6938;BME280;40040;42.706;23.372;2024-03-08T05:04:08;145670.00;;;6.05;100.00
6938;BME280;40040;42.706;23.372;2024-03-08T05:06:35;145667.53;;;6.04;100.00
6938;BME280;40040;42.706;23.372;2024-03-08T05:09:02;145663.84;;;6.02;100.00
6938;BME280;40040;42.706;23.372;2024-03-08T05:11:39;145609.72;;;5.80;100.00
6938;BME280;40040;42.706;23.372;2024-03-08T05:14:07;145548.28;;;5.55;100.00
6938;BME280;40040;42.706;23.372;2024-03-08T05:16:34;145575.31;;;5.66;100.00
6938;BME280;40040;42.706;23.372;2024-03-08T05:19:01;145554.44;;;5.57;100.00
6938;BME280;40040;42.706;23.372;2024-03-08T05:21:27;145551.94;;;5.56;100.00
6938;BME280;40040;42.706;23.372;2024-03-08T05:23:55;145522.47;;;5.44;100.00
6938;BME280;40040;42.706;23.372;2024-03-08T05:26:22;145452.47;;;5.16;100.00
6938;BME280;40040;42.706;23.372;2024-03-08T05:28:48;145500.34;;;5.35;100.00
6938;BME280;40040;42.706;23.372;2024-03-08T05:31:19;145492.97;;;5.32;100.00
6938;BME280;40040;42.706;23.372;2024-03-08T05:33:47;145501.59;;;5.36;100.00
6938;BME280;40040;42.706;23.372;2024-03-08T05:36:14;145475.78;;;5.25;100.00
6938;BME280;40040;42.706;23.372;2024-03-08T05:38:42;145479.47;;;5.27;100.00
6938;BME280;40040;42.706;23.372;2024-03-08T05:41:08;145513.88;;;5.41;100.00
6938;BME280;40040;42.706;23.372;2024-03-08T05:43:35;145517.53;;;5.42;100.00
6938;BME280;40040;42.706;23.372;2024-03-08T05:46:03;145472.09;;;5.24;100.00
6938;BME280;40040;42.706;23.372;2024-03-08T05:48:32;145488.06;;;5.30;100.00
6938;BME280;40040;42.706;23.372;2024-03-08T05:50:59;145479.47;;;5.27;100.00
6938;BME280;40040;42.706;23.372;2024-03-08T05:53:27;145489.31;;;5.31;100.00
6938;BME280;40040;42.706;23.372;2024-03-08T05:55:57;145508.94;;;5.39;100.00
6938;BME280;40040;42.706;23.372;2024-03-08T05:58:24;145508.94;;;5.39;100.00
6938;BME280;40040;42.706;23.372;2024-03-08T06:00:50;145535.97;;;5.50;100.00
6938;BME280;40040;42.706;23.372;2024-03-08T06:03:17;145539.66;;;5.51;100.00
6938;BME280;40040;42.706;23.372;2024-03-08T06:05:49;145554.44;;;5.57;100.00
6938;BME280;40040;42.706;23.372;2024-03-08T06:08:15;145558.13;;;5.59;100.00
6938;BME280;40040;42.706;23.372;2024-03-08T06:10:44;145563.03;;;5.61;100.00
6938;BME280;40040;42.706;23.372;2024-03-08T06:13:11;145577.75;;;5.67;100.00
6938;BME280;40040;42.706;23.372;2024-03-08T06:15:38;145583.91;;;5.69;100.00
6938;BME280;40040;42.706;23.372;2024-03-08T06:18:05;145582.69;;;5.69;100.00
6938;BME280;40040;42.706;23.372;2024-03-08T06:20:36;145580.25;;;5.68;100.00
6938;BME280;40040;42.706;23.372;2024-03-08T06:23:04;145582.69;;;5.69;100.00
6938;BME280;40040;42.706;23.372;2024-03-08T06:25:31;145526.16;;;5.46;100.00
6938;BME280;40040;42.706;23.372;2024-03-08T06:27:58;145528.63;;;5.47;100.00
6938;BME280;40040;42.706;23.372;2024-03-08T06:30:25;145587.59;;;5.71;100.00
6938;BME280;40040;42.706;23.372;2024-03-08T06:32:51;145516.34;;;5.42;100.00
6938;BME280;40040;42.706;23.372;2024-03-08T06:35:18;145533.53;;;5.49;100.00
6938;BME280;40040;42.706;23.372;2024-03-08T06:37:45;145478.25;;;5.26;100.00
6938;BME280;40040;42.706;23.372;2024-03-08T06:40:14;145518.78;;;5.43;100.00
6938;BME280;40040;42.706;23.372;2024-03-08T06:42:40;145553.19;;;5.57;100.00
6938;BME280;40040;42.706;23.372;2024-03-08T06:45:09;145580.25;;;5.68;100.00
6938;BME280;40040;42.706;23.372;2024-03-08T06:47:35;145593.75;;;5.73;100.00
6938;BME280;40040;42.706;23.372;2024-03-08T06:50:02;145593.75;;;5.73;100.00
6938;BME280;40040;42.706;23.372;2024-03-08T06:52:31;145596.19;;;5.74;100.00
6938;BME280;40040;42.706;23.372;2024-03-08T06:54:58;145619.59;;;5.84;100.00
6938;BME280;40040;42.706;23.372;2024-03-08T06:57:28;145652.81;;;5.98;100.00
6938;BME280;40040;42.706;23.372;2024-03-08T06:59:55;145654.00;;;5.98;100.00
6938;BME280;40040;42.706;23.372;2024-03-08T07:02:22;145634.34;;;5.90;100.00
6938;BME280;40040;42.706;23.372;2024-03-08T07:04:51;145609.72;;;5.80;100.00
6938;BME280;40040;42.706;23.372;2024-03-08T07:07:18;145597.44;;;5.75;100.00
6938;BME280;40040;42.706;23.372;2024-03-08T07:09:46;145583.91;;;5.69;100.00
6938;BME280;40040;42.706;23.372;2024-03-08T07:12:15;145576.56;;;5.66;100.00
6938;BME280;40040;42.706;23.372;2024-03-08T07:14:43;145613.41;;;5.82;100.00
6938;BME280;40040;42.706;23.372;2024-03-08T07:17:11;145658.91;;;6.00;100.00
6938;BME280;40040;42.706;23.372;2024-03-08T07:19:38;145668.78;;;6.04;100.00
6938;BME280;40040;42.706;23.372;2024-03-08T07:22:05;145715.47;;;6.23;100.00
6938;BME280;40040;42.706;23.372;2024-03-08T07:24:34;145705.63;;;6.19;100.00
6938;BME280;40040;42.706;23.372;2024-03-08T07:27:16;145727.78;;;6.28;100.00
6938;BME280;40040;42.706;23.372;2024-03-08T07:29:44;145747.41;;;6.36;100.00
6938;BME280;40040;42.706;23.372;2024-03-08T07:32:11;145736.38;;;6.32;100.00
6938;BME280;40040;42.706;23.372;2024-03-08T07:34:47;145757.28;;;6.40;100.00
6938;BME280;40040;42.706;23.372;2024-03-08T07:37:14;145741.31;;;6.34;100.00
6938;BME280;40040;42.706;23.372;2024-03-08T07:39:41;145741.31;;;6.34;100.00
6938;BME280;40040;42.706;23.372;2024-03-08T07:42:09;145740.06;;;6.33;100.00
6938;BME280;40040;42.706;23.372;2024-03-08T07:44:37;145747.41;;;6.36;100.00
6938;BME280;40040;42.706;23.372;2024-03-08T07:47:05;145758.50;;;6.41;100.00
6938;BME280;40040;42.706;23.372;2024-03-08T07:49:35;145695.81;;;6.15;100.00
6938;BME280;40040;42.706;23.372;2024-03-08T07:52:03;145722.84;;;6.26;100.00
6938;BME280;40040;42.706;23.372;2024-03-08T07:54:29;145706.88;;;6.20;100.00
6938;BME280;40040;42.706;23.372;2024-03-08T07:56:56;145700.69;;;6.17;100.00
6938;BME280;40040;42.706;23.372;2024-03-08T07:59:23;145736.38;;;6.32;100.00
6938;BME280;40040;42.706;23.372;2024-03-08T08:01:50;145770.81;;;6.46;100.00
6938;BME280;40040;42.706;23.372;2024-03-08T08:04:18;145806.47;;;6.60;100.00
6938;BME280;40040;42.706;23.372;2024-03-08T08:06:50;145827.38;;;6.69;100.00
6938;BME280;40040;42.706;23.372;2024-03-08T08:09:16;145799.06;;;6.57;100.00
6938;BME280;40040;42.706;23.372;2024-03-08T08:11:54;145850.72;;;6.78;100.00
6938;BME280;40040;42.706;23.372;2024-03-08T08:14:20;145823.72;;;6.67;100.00
6938;BME280;40040;42.706;23.372;2024-03-08T08:16:48;145883.97;;;6.92;100.00
6938;BME280;40040;42.706;23.372;2024-03-08T08:19:19;145931.94;;;7.12;100.00
6938;BME280;40040;42.706;23.372;2024-03-08T08:21:46;145981.16;;;7.32;100.00
6938;BME280;40040;42.706;23.372;2024-03-08T08:24:12;145998.38;;;7.39;100.00
6938;BME280;40040;42.706;23.372;2024-03-08T08:26:40;146042.66;;;7.57;100.00
6938;BME280;40040;42.706;23.372;2024-03-08T08:29:06;146084.56;;;7.74;100.00
6938;BME280;40040;42.706;23.372;2024-03-08T08:31:33;146096.84;;;7.79;100.00
6938;BME280;40040;42.706;23.372;2024-03-08T08:34:00;146128.84;;;7.92;100.00
6938;BME280;40040;42.706;23.372;2024-03-08T08:36:29;146153.44;;;8.02;100.00
6938;BME280;40040;42.706;23.372;2024-03-08T08:38:57;146168.25;;;8.08;100.00
6938;BME280;40040;42.706;23.372;2024-03-08T08:41:25;146181.81;;;8.14;100.00
6938;BME280;40040;42.706;23.372;2024-03-08T08:43:52;146191.63;;;8.18;100.00
6938;BME280;40040;42.706;23.372;2024-03-08T08:46:19;146249.56;;;8.41;100.00
6938;BME280;40040;42.706;23.372;2024-03-08T08:48:47;146284.06;;;8.55;100.00
6938;BME280;40040;42.706;23.372;2024-03-08T08:51:14;146301.31;;;8.62;100.00
6938;BME280;40040;42.706;23.372;2024-03-08T08:53:42;146359.19;;;8.86;100.00
6938;BME280;40040;42.706;23.372;2024-03-08T08:56:11;146355.50;;;8.84;100.00
6938;BME280;40040;42.706;23.372;2024-03-08T08:58:38;146394.94;;;9.00;100.00
6938;BME280;40040;42.706;23.372;2024-03-08T09:01:06;146403.56;;;9.04;100.00
6938;BME280;40040;42.706;23.372;2024-03-08T09:03:33;146422.06;;;9.12;100.00
6938;BME280;40040;42.706;23.372;2024-03-08T09:06:00;146424.50;;;9.13;100.00
6938;BME280;40040;42.706;23.372;2024-03-08T09:08:28;146394.94;;;9.00;100.00
6938;BME280;40040;42.706;23.372;2024-03-08T09:10:56;146443.00;;;9.20;100.00
6938;BME280;40040;42.706;23.372;2024-03-08T09:13:25;146444.22;;;9.21;100.00
6938;BME280;40040;42.706;23.372;2024-03-08T09:15:52;146569.97;;;9.72;100.00
6938;BME280;40040;42.706;23.372;2024-03-08T09:18:19;146592.16;;;9.81;100.00
6938;BME280;40040;42.706;23.372;2024-03-08T09:20:46;146610.69;;;9.88;100.00
6938;BME280;40040;42.706;23.372;2024-03-08T09:26:44;146599.53;;;9.84;100.00
6938;BME280;40040;42.706;23.372;2024-03-08T09:29:39;146639.00;;;10.00;100.00
6938;BME280;40040;42.706;23.372;2024-03-08T09:32:15;146609.44;;;9.88;100.00
6938;BME280;40040;42.706;23.372;2024-03-08T09:34:42;146662.47;;;10.09;100.00
6938;BME280;40040;42.706;23.372;2024-03-08T09:37:09;146711.81;;;10.30;100.00
6938;BME280;40040;42.706;23.372;2024-03-08T09:39:35;146790.75;;;10.62;100.00
6938;BME280;40040;42.706;23.372;2024-03-08T09:42:04;146827.81;;;10.77;100.00
6938;BME280;40040;42.706;23.372;2024-03-08T09:44:32;146850.03;;;10.86;100.00
6938;BME280;40040;42.706;23.372;2024-03-08T09:47:00;146727.84;;;10.36;100.00
6938;BME280;40040;42.706;23.372;2024-03-08T09:49:28;146698.25;;;10.24;100.00
6938;BME280;40040;42.706;23.372;2024-03-08T09:51:55;146703.19;;;10.26;100.00
6938;BME280;40040;42.706;23.372;2024-03-08T09:54:22;146752.50;;;10.46;90.58
6938;BME280;40040;42.706;23.372;2024-03-08T09:56:51;146833.94;;;10.79;90.51
6938;BME280;40040;42.706;23.372;2024-03-08T09:59:19;146978.38;;;11.38;89.08
6938;BME280;40040;42.706;23.372;2024-03-08T10:02:09;147016.66;;;11.54;85.06
6938;BME280;40040;42.706;23.372;2024-03-08T10:04:40;147073.50;;;11.77;86.36
6938;BME280;40040;42.706;23.372;2024-03-08T10:07:07;147059.91;;;11.71;85.38
6938;BME280;40040;42.706;23.372;2024-03-08T10:09:34;147031.44;;;11.60;82.18
6938;BME280;40040;42.706;23.372;2024-03-08T10:12:01;147106.84;;;11.90;83.66
6938;BME280;40040;42.706;23.372;2024-03-08T10:14:30;147172.28;;;12.17;84.51
6938;BME280;40040;42.706;23.372;2024-03-08T10:16:57;147103.16;;;11.89;83.67
6938;BME280;40040;42.706;23.372;2024-03-08T10:19:25;147117.94;;;11.95;83.26
6938;BME280;40040;42.706;23.372;2024-03-08T10:21:52;147064.88;;;11.73;83.99
6938;BME280;40040;42.706;23.372;2024-03-08T10:24:22;147080.91;;;11.80;83.74
6938;BME280;40040;42.706;23.372;2024-03-08T10:26:52;146984.53;;;11.41;87.03
6938;BME280;40040;42.706;23.372;2024-03-08T10:29:19;147106.84;;;11.90;87.17
6938;BME280;40040;42.706;23.372;2024-03-08T10:31:47;147216.75;;;12.35;83.79
6938;BME280;40040;42.706;23.372;2024-03-08T10:34:15;147192.06;;;12.25;84.96
6938;BME280;40040;42.706;23.372;2024-03-08T10:36:42;147092.00;;;11.84;85.26
6938;BME280;40040;42.706;23.372;2024-03-08T10:39:19;147125.34;;;11.98;85.50
6938;BME280;40040;42.706;23.372;2024-03-08T10:41:53;147125.34;;;11.98;85.74
6938;BME280;40040;42.706;23.372;2024-03-08T10:47:17;147116.69;;;11.94;85.18
6938;BME280;40040;42.706;23.372;2024-03-08T10:49:51;147182.16;;;12.21;82.37
6938;BME280;40040;42.706;23.372;2024-03-08T10:52:21;147161.19;;;12.12;82.79
6938;BME280;40040;42.706;23.372;2024-03-08T10:54:48;147088.31;;;11.83;81.49
6938;BME280;40040;42.706;23.372;2024-03-08T10:57:18;147194.53;;;12.26;80.93
6938;BME280;40040;42.706;23.372;2024-03-08T10:59:47;147288.41;;;12.64;79.73
6938;BME280;40040;42.706;23.372;2024-03-08T11:02:17;147373.72;;;12.99;77.75
6938;BME280;40040;42.706;23.372;2024-03-08T11:04:48;147476.38;;;13.40;77.71
6938;BME280;40040;42.706;23.372;2024-03-08T11:07:16;147477.59;;;13.41;78.09
6938;BME280;40040;42.706;23.372;2024-03-08T11:09:47;147585.19;;;13.85;77.24
6938;BME280;40040;42.706;23.372;2024-03-08T11:12:25;147627.22;;;14.02;75.89
6938;BME280;40040;42.706;23.372;2024-03-08T11:14:56;147570.38;;;13.79;75.41
6938;BME280;40040;42.706;23.372;2024-03-08T11:17:45;147628.47;;;14.02;73.50
6938;BME280;40040;42.706;23.372;2024-03-08T11:20:14;147690.41;;;14.27;72.08
6938;BME280;40040;42.706;23.372;2024-03-08T11:22:47;147789.41;;;14.68;71.42
6938;BME280;40040;42.706;23.372;2024-03-08T11:25:34;147906.97;;;15.15;67.55
6938;BME280;40040;42.706;23.372;2024-03-08T11:28:14;147952.81;;;15.34;65.04
6938;BME280;40040;42.706;23.372;2024-03-08T11:30:47;147951.56;;;15.33;66.75
6938;BME280;40040;42.706;23.372;2024-03-08T11:33:37;148100.19;;;15.94;64.03
6938;BME280;40040;42.706;23.372;2024-03-08T11:36:10;148053.13;;;15.74;63.19
6938;BME280;40040;42.706;23.372;2024-03-08T11:38:42;148136.16;;;16.08;62.78
6938;BME280;40040;42.706;23.372;2024-03-08T11:41:09;148248.97;;;16.54;59.23
6938;BME280;40040;42.706;23.372;2024-03-08T11:43:39;148332.03;;;16.88;60.15
6938;BME280;40040;42.706;23.372;2024-03-08T11:46:10;148306.00;;;16.77;58.88
6938;BME280;40040;42.706;23.372;2024-03-08T11:48:39;148095.28;;;15.92;59.69
6938;BME280;40040;42.706;23.372;2024-03-08T11:51:07;147905.75;;;15.15;62.70
6938;BME280;40040;42.706;23.372;2024-03-08T11:53:34;147806.72;;;14.75;62.28
6938;BME280;40040;42.706;23.372;2024-03-08T11:56:06;147684.16;;;14.25;64.06
6938;BME280;40040;42.706;23.372;2024-03-08T11:58:34;147779.47;;;14.63;64.87
6938;BME280;40040;42.706;23.372;2024-03-08T12:01:03;147845.09;;;14.90;63.99
6938;BME280;40040;42.706;23.372;2024-03-08T12:03:31;147908.22;;;15.16;61.62
6938;BME280;40040;42.706;23.372;2024-03-08T12:06:00;147978.84;;;15.44;61.90
6938;BME280;40040;42.706;23.372;2024-03-08T12:08:30;148085.38;;;15.88;61.57
6938;BME280;40040;42.706;23.372;2024-03-08T12:10:58;148097.75;;;15.93;60.01
6938;BME280;40040;42.706;23.372;2024-03-08T12:13:26;147983.78;;;15.46;60.89
6938;BME280;40040;42.706;23.372;2024-03-08T12:15:56;147889.63;;;15.08;62.19
6938;BME280;40040;42.706;23.372;2024-03-08T12:18:24;147789.41;;;14.68;62.97
6938;BME280;40040;42.706;23.372;2024-03-08T12:20:51;147837.63;;;14.87;63.12
6938;BME280;40040;42.706;23.372;2024-03-08T12:23:19;147835.19;;;14.86;62.57
6938;BME280;40040;42.706;23.372;2024-03-08T12:25:46;147835.19;;;14.86;63.33
6938;BME280;40040;42.706;23.372;2024-03-08T12:28:13;147825.25;;;14.82;64.08
6938;BME280;40040;42.706;23.372;2024-03-08T12:30:46;147674.28;;;14.21;64.43
6938;BME280;40040;42.706;23.372;2024-03-08T12:33:14;147674.28;;;14.21;64.58
6938;BME280;40040;42.706;23.372;2024-03-08T12:35:40;147606.19;;;13.93;64.81
6938;BME280;40040;42.706;23.372;2024-03-08T12:38:08;147647.03;;;14.10;65.38
6938;BME280;40040;42.706;23.372;2024-03-08T12:40:36;147697.81;;;14.30;63.81
6938;BME280;40040;42.706;23.372;2024-03-08T12:43:07;147638.38;;;14.06;64.06
6938;BME280;40040;42.706;23.372;2024-03-08T12:45:34;147545.59;;;13.69;65.67
6938;BME280;40040;42.706;23.372;2024-03-08T12:48:00;147439.25;;;13.25;66.00
6938;BME280;40040;42.706;23.372;2024-03-08T12:50:28;147441.75;;;13.26;65.12
6938;BME280;40040;42.706;23.372;2024-03-08T12:52:55;147379.88;;;13.01;66.49
6938;BME280;40040;42.706;23.372;2024-03-08T12:55:22;147441.75;;;13.26;66.29
6938;BME280;40040;42.706;23.372;2024-03-08T12:57:50;147382.38;;;13.02;67.57
6938;BME280;40040;42.706;23.372;2024-03-08T13:00:18;147340.31;;;12.85;66.93
6938;BME280;40040;42.706;23.372;2024-03-08T13:02:45;147345.28;;;12.87;68.57
6938;BME280;40040;42.706;23.372;2024-03-08T13:05:12;147310.66;;;12.73;67.35